createdAt,value
2018-01-21T00:02:13.937Z,0.87
2018-01-21T00:04:39.961Z,0.84
2018-01-21T00:07:05.974Z,0.84
2018-01-21T00:09:31.956Z,0.85
2018-01-21T00:11:58.025Z,0.91
2018-01-21T00:14:31.008Z,0.88
2018-01-21T00:16:57.049Z,0.92
2018-01-21T00:19:22.997Z,0.89
2018-01-21T00:21:49.080Z,0.91
2018-01-21T00:24:15.114Z,0.89
2018-01-21T00:26:41.143Z,0.90
2018-01-21T00:29:07.186Z,0.89
2018-01-21T00:31:33.273Z,0.92
2018-01-21T00:33:59.273Z,0.93
2018-01-21T00:36:25.285Z,0.97
2018-01-21T00:38:51.281Z,0.95
2018-01-21T00:41:17.384Z,0.95
2018-01-21T00:43:43.395Z,0.95
2018-01-21T00:46:09.425Z,0.95
2018-01-21T00:48:35.431Z,0.94
2018-01-21T00:51:01.480Z,0.96
2018-01-21T00:53:27.528Z,0.95
2018-01-21T00:55:53.565Z,0.97
2018-01-21T00:58:19.648Z,0.98
2018-01-21T01:00:45.664Z,0.96
2018-01-21T01:03:11.674Z,1.00
2018-01-21T01:05:37.712Z,0.93
2018-01-21T01:08:03.762Z,0.91
2018-01-21T01:10:29.808Z,0.92
2018-01-21T01:12:55.764Z,0.93
2018-01-21T01:15:21.797Z,0.97
2018-01-21T01:17:47.841Z,0.97
2018-01-21T01:20:13.915Z,0.96
2018-01-21T01:22:39.933Z,0.93
2018-01-21T01:25:05.996Z,0.96
2018-01-21T01:27:32.273Z,0.96
2018-01-21T01:29:58.281Z,0.98
2018-01-21T01:32:30.412Z,0.95
2018-01-21T01:34:56.416Z,0.95
2018-01-21T01:37:22.481Z,0.96
2018-01-21T01:39:48.461Z,0.92
2018-01-21T01:42:14.465Z,0.94
2018-01-21T01:44:40.443Z,0.96
2018-01-21T01:47:06.540Z,0.98
2018-01-21T01:49:32.551Z,1.00
2018-01-21T01:51:58.561Z,1.01
2018-01-21T01:54:24.594Z,1.02
2018-01-21T01:56:50.585Z,1.02
2018-01-21T01:59:16.638Z,1.03
2018-01-21T02:01:42.692Z,1.03
2018-01-21T02:04:08.701Z,0.97
2018-01-21T02:06:34.740Z,0.97
2018-01-21T02:09:00.737Z,0.94
2018-01-21T02:11:26.744Z,0.96
2018-01-21T02:13:52.744Z,0.99
2018-01-21T02:16:18.740Z,1.00
2018-01-21T02:18:44.815Z,1.03
2018-01-21T02:21:10.799Z,1.06
2018-01-21T02:23:36.816Z,1.17
2018-01-21T02:26:02.928Z,1.27
2018-01-21T02:28:29.024Z,1.35
2018-01-21T02:30:55.125Z,1.47
2018-01-21T02:33:21.192Z,1.49
2018-01-21T02:35:47.235Z,1.33
2018-01-21T02:38:13.273Z,1.32
2018-01-21T02:40:39.280Z,1.21
2018-01-21T02:43:05.380Z,1.15
2018-01-21T02:45:31.368Z,1.10
2018-01-21T02:47:57.397Z,1.03
2018-01-21T02:50:23.494Z,1.01
2018-01-21T02:52:49.955Z,1.02
2018-01-21T02:55:15.952Z,1.04
2018-01-21T02:57:42.329Z,1.03
2018-01-21T03:00:08.348Z,1.04
2018-01-21T03:02:34.412Z,1.05
2018-01-21T03:05:00.464Z,1.05
2018-01-21T03:07:26.525Z,1.05
2018-01-21T03:09:52.517Z,1.16
2018-01-21T03:12:18.533Z,1.19
2018-01-21T03:14:44.568Z,1.24
2018-01-21T03:17:10.609Z,1.20
2018-01-21T03:19:36.606Z,1.12
2018-01-21T03:22:02.630Z,1.29
2018-01-21T03:24:28.647Z,1.32
2018-01-21T03:26:54.636Z,1.27
2018-01-21T03:29:20.690Z,1.16
2018-01-21T03:31:46.696Z,1.09
2018-01-21T03:34:12.720Z,1.05
2018-01-21T03:36:38.816Z,1.06
2018-01-21T03:39:04.796Z,1.27
2018-01-21T03:41:30.784Z,1.15
2018-01-21T03:43:56.960Z,1.37
2018-01-21T03:46:22.993Z,1.29
2018-01-21T03:48:48.996Z,1.21
2018-01-21T03:51:15.038Z,1.33
2018-01-21T03:53:41.115Z,1.28
2018-01-21T03:56:07.124Z,1.15
2018-01-21T03:58:33.153Z,1.11
2018-01-21T04:00:59.200Z,1.07
2018-01-21T04:03:25.204Z,1.04
2018-01-21T04:05:51.273Z,1.01
2018-01-21T04:08:17.332Z,1.08
2018-01-21T04:10:43.365Z,1.04
2018-01-21T04:13:09.412Z,1.10
2018-01-21T04:15:35.473Z,1.14
2018-01-21T04:18:01.520Z,1.26
2018-01-21T04:20:27.545Z,1.30
2018-01-21T04:22:53.647Z,1.40
2018-01-21T04:25:19.681Z,1.18
2018-01-21T04:27:45.614Z,1.14
2018-01-21T04:30:11.635Z,1.25
2018-01-21T04:32:37.648Z,1.33
2018-01-21T04:35:03.705Z,1.33
2018-01-21T04:37:30.165Z,1.38
2018-01-21T04:39:56.133Z,1.33
2018-01-21T04:42:22.128Z,1.31
2018-01-21T04:44:48.182Z,1.30
2018-01-21T04:47:14.236Z,1.19
2018-01-21T04:49:40.301Z,1.14
2018-01-21T04:52:06.320Z,1.09
2018-01-21T04:54:32.344Z,1.09
2018-01-21T04:56:58.378Z,1.26
2018-01-21T04:59:24.377Z,1.30
2018-01-21T05:01:50.388Z,1.31
2018-01-21T05:04:16.394Z,1.37
2018-01-21T05:06:42.424Z,1.34
2018-01-21T05:09:08.492Z,1.37
2018-01-21T05:11:34.488Z,1.35
2018-01-21T05:14:00.555Z,1.34
2018-01-21T05:16:26.605Z,1.23
2018-01-21T05:18:52.597Z,1.17
2018-01-21T05:21:18.703Z,1.17
2018-01-21T05:23:44.744Z,1.25
2018-01-21T05:26:10.753Z,1.24
2018-01-21T05:28:36.804Z,1.27
2018-01-21T05:31:02.817Z,1.22
2018-01-21T05:33:28.863Z,1.20
2018-01-21T05:35:54.856Z,1.08
2018-01-21T05:38:20.884Z,1.18
2018-01-21T05:40:46.952Z,1.08
2018-01-21T05:43:12.975Z,1.10
2018-01-21T05:45:38.996Z,1.14
2018-01-21T05:48:04.995Z,1.28
2018-01-21T05:50:30.988Z,1.26
2018-01-21T05:52:56.998Z,1.18
2018-01-21T05:55:23.072Z,1.29
2018-01-21T05:57:49.135Z,1.26
2018-01-21T06:00:15.220Z,1.25
2018-01-21T06:02:41.219Z,1.22
2018-01-21T06:05:07.230Z,1.19
2018-01-21T06:07:33.208Z,1.25
2018-01-21T06:09:59.239Z,1.21
2018-01-21T06:12:25.272Z,1.20
2018-01-21T06:14:51.367Z,1.18
2018-01-21T06:17:17.395Z,1.11
2018-01-21T06:19:43.425Z,1.20
2018-01-21T06:22:09.545Z,1.25
2018-01-21T06:24:35.588Z,1.15
2018-01-21T06:27:01.676Z,1.14
2018-01-21T06:29:27.736Z,1.17
2018-01-21T06:31:53.729Z,1.17
2018-01-21T06:34:19.756Z,1.14
2018-01-21T06:36:45.767Z,1.14
2018-01-21T06:39:11.800Z,1.11
2018-01-21T06:41:37.825Z,1.10
2018-01-21T06:44:03.820Z,1.11
2018-01-21T06:46:29.865Z,1.04
2018-01-21T06:48:55.884Z,0.98
2018-01-21T06:51:21.927Z,1.09
2018-01-21T06:53:47.944Z,1.04
2018-01-21T06:56:13.956Z,1.03
2018-01-21T06:58:40.006Z,0.88
2018-01-21T07:01:06.028Z,0.92
2018-01-21T07:03:32.065Z,0.99
2018-01-21T07:05:58.112Z,1.00
2018-01-21T07:08:24.116Z,1.01
2018-01-21T07:10:50.169Z,0.98
2018-01-21T07:13:16.191Z,1.09
2018-01-21T07:15:42.187Z,0.96
2018-01-21T07:18:08.200Z,1.06
2018-01-21T07:20:34.205Z,1.03
2018-01-21T07:23:00.253Z,1.04
2018-01-21T07:25:26.288Z,1.12
2018-01-21T07:27:52.341Z,1.08
2018-01-21T07:30:18.375Z,1.04
2018-01-21T07:32:44.400Z,0.98
2018-01-21T07:35:10.498Z,1.08
2018-01-21T07:37:36.512Z,1.03
2018-01-21T07:40:02.624Z,1.16
2018-01-21T07:42:31.615Z,1.11
2018-01-21T07:44:57.608Z,1.14
2018-01-21T07:47:23.696Z,1.15
2018-01-21T07:49:49.762Z,1.24
2018-01-21T07:52:15.728Z,1.30
2018-01-21T07:54:41.759Z,1.31
2018-01-21T07:57:07.773Z,1.24
2018-01-21T07:59:33.820Z,1.16
2018-01-21T08:01:59.844Z,1.29
2018-01-21T08:04:25.885Z,1.25
2018-01-21T08:06:51.949Z,1.27
2018-01-21T08:09:17.904Z,1.08
2018-01-21T08:11:43.984Z,1.13
2018-01-21T08:14:10.027Z,1.11
2018-01-21T08:16:36.053Z,1.23
2018-01-21T08:19:02.104Z,1.19
2018-01-21T08:21:28.346Z,1.24
2018-01-21T08:23:54.292Z,1.29
2018-01-21T08:26:20.387Z,1.17
2018-01-21T08:28:46.397Z,1.18
2018-01-21T08:31:12.421Z,1.12
2018-01-21T08:33:38.495Z,1.19
2018-01-21T08:39:28.371Z,1.06
2018-01-21T08:42:00.528Z,1.31
2018-01-21T08:44:26.537Z,1.37
2018-01-21T08:46:52.528Z,1.32
2018-01-21T08:49:18.576Z,1.33
2018-01-21T08:51:44.625Z,1.36
2018-01-21T08:54:10.687Z,1.27
2018-01-21T08:56:36.865Z,1.11
2018-01-21T08:59:03.001Z,1.24
2018-01-21T09:01:29.086Z,1.32
2018-01-21T09:03:55.255Z,1.36
2018-01-21T09:06:21.332Z,1.44
2018-01-21T09:08:47.336Z,1.35
2018-01-21T09:11:13.397Z,1.44
2018-01-21T09:13:39.480Z,1.65
2018-01-21T09:16:05.517Z,1.50
2018-01-21T09:18:31.532Z,1.31
2018-01-21T09:20:57.609Z,1.34
2018-01-21T09:23:23.891Z,1.28
2018-01-21T09:25:50.020Z,1.17
2018-01-21T09:28:16.136Z,1.19
2018-01-21T09:30:42.257Z,1.22
2018-01-21T09:33:08.325Z,1.26
2018-01-21T09:35:34.388Z,1.29
2018-01-21T09:38:00.417Z,1.43
2018-01-21T09:40:26.495Z,1.48
2018-01-21T09:42:52.546Z,1.59
2018-01-21T09:45:18.580Z,1.63
2018-01-21T09:47:44.604Z,1.82
2018-01-21T09:50:10.656Z,2.13
2018-01-21T09:52:36.676Z,1.96
2018-01-21T09:55:02.749Z,2.04
2018-01-21T09:57:28.756Z,2.27
2018-01-21T09:59:54.774Z,2.61
2018-01-21T10:02:20.801Z,2.49
2018-01-21T10:04:46.874Z,2.06
2018-01-21T10:07:13.028Z,2.07
2018-01-21T10:09:39.047Z,1.78
2018-01-21T10:12:05.111Z,1.88
2018-01-21T10:14:31.690Z,1.80
2018-01-21T10:16:57.739Z,1.83
2018-01-21T10:19:23.760Z,1.95
2018-01-21T10:21:49.774Z,2.17
2018-01-21T10:24:15.796Z,2.15
2018-01-21T10:26:41.852Z,2.11
2018-01-21T10:29:07.932Z,1.92
2018-01-21T10:31:33.916Z,1.90
2018-01-21T10:33:59.982Z,1.92
2018-01-21T10:36:25.999Z,2.00
2018-01-21T10:38:52.131Z,1.95
2018-01-21T10:41:18.169Z,1.80
2018-01-21T10:43:44.267Z,1.68
2018-01-21T10:46:10.316Z,1.91
2018-01-21T10:48:36.392Z,1.81
2018-01-21T10:51:02.504Z,2.01
2018-01-21T10:53:28.513Z,1.98
2018-01-21T10:55:54.522Z,2.25
2018-01-21T10:58:20.598Z,2.43
2018-01-21T11:00:52.749Z,2.13
2018-01-21T11:03:18.759Z,2.14
2018-01-21T11:05:45.124Z,2.02
2018-01-21T11:08:11.169Z,1.85
2018-01-21T11:10:37.113Z,2.11
2018-01-21T11:13:03.118Z,1.91
2018-01-21T11:15:29.147Z,1.91
2018-01-21T11:17:55.161Z,1.72
2018-01-21T11:20:21.213Z,1.72
2018-01-21T11:22:47.248Z,1.98
2018-01-21T11:25:13.323Z,1.83
2018-01-21T11:27:39.313Z,1.62
2018-01-21T11:30:05.332Z,1.43
2018-01-21T11:32:31.434Z,1.61
2018-01-21T11:34:57.529Z,1.66
2018-01-21T11:37:23.563Z,1.70
2018-01-21T11:39:49.500Z,1.77
2018-01-21T11:42:15.585Z,1.87
2018-01-21T11:44:41.613Z,1.78
2018-01-21T11:47:10.767Z,1.58
2018-01-21T11:49:33.760Z,1.60
2018-01-21T11:51:59.849Z,1.69
2018-01-21T11:54:25.837Z,1.73
2018-01-21T11:56:51.855Z,1.85
2018-01-21T11:59:17.909Z,1.83
2018-01-21T12:01:43.956Z,1.85
2018-01-21T12:04:10.079Z,1.81
2018-01-21T12:06:36.113Z,1.95
2018-01-21T12:09:02.121Z,1.98
2018-01-21T12:11:28.150Z,2.08
2018-01-21T12:13:54.567Z,2.00
2018-01-21T12:16:20.580Z,2.17
2018-01-21T12:18:46.652Z,1.81
2018-01-21T12:21:12.716Z,1.78
2018-01-21T12:23:38.741Z,1.70
2018-01-21T12:26:04.709Z,1.57
2018-01-21T12:28:30.728Z,1.60
2018-01-21T12:30:56.972Z,1.80
2018-01-21T12:33:23.024Z,1.72
2018-01-21T12:35:49.064Z,2.03
2018-01-21T12:38:15.077Z,2.34
2018-01-21T12:40:41.158Z,2.59
2018-01-21T12:43:07.208Z,2.52
2018-01-21T12:45:33.233Z,2.42
2018-01-21T12:47:59.344Z,2.61
2018-01-21T12:50:25.407Z,2.65
2018-01-21T12:52:51.496Z,2.34
2018-01-21T12:55:18.069Z,1.96
2018-01-21T12:57:44.064Z,2.14
2018-01-21T13:00:11.143Z,2.05
2018-01-21T13:02:37.216Z,2.00
2018-01-21T13:05:03.382Z,2.21
2018-01-21T13:07:29.432Z,1.98
2018-01-21T13:09:55.496Z,2.00
2018-01-21T13:12:21.663Z,1.62
2018-01-21T13:14:47.677Z,1.76
2018-01-21T13:17:13.737Z,1.93
2018-01-21T13:19:39.819Z,1.88
2018-01-21T13:22:05.848Z,2.22
2018-01-21T13:24:31.900Z,2.35
2018-01-21T13:26:57.912Z,2.44
2018-01-21T13:29:23.921Z,2.39
2018-01-21T13:31:50.002Z,2.59
2018-01-21T13:34:16.095Z,3.34
2018-01-21T13:36:42.115Z,4.00
2018-01-21T13:39:08.144Z,3.60
2018-01-21T13:41:34.208Z,3.53
2018-01-21T13:44:00.232Z,4.36
2018-01-21T13:46:26.285Z,3.26
2018-01-21T13:48:52.292Z,2.57
2018-01-21T13:51:18.403Z,2.12
2018-01-21T13:53:44.431Z,2.24
2018-01-21T13:56:10.424Z,1.83
2018-01-21T13:58:36.454Z,1.64
2018-01-21T14:01:02.504Z,1.55
2018-01-21T14:03:28.563Z,1.79
2018-01-21T14:05:54.649Z,1.60
2018-01-21T14:08:20.700Z,1.84
2018-01-21T14:10:46.773Z,2.03
2018-01-21T14:13:12.809Z,2.13
2018-01-21T14:15:38.821Z,2.33
2018-01-21T14:18:04.979Z,2.29
2018-01-21T14:20:31.008Z,2.51
2018-01-21T14:22:57.089Z,2.57
2018-01-21T14:25:23.151Z,2.47
2018-01-21T14:27:49.345Z,2.54
2018-01-21T14:30:15.434Z,2.20
2018-01-21T14:32:41.634Z,1.88
2018-01-21T14:35:07.736Z,1.87
2018-01-21T14:37:33.789Z,1.83
2018-01-21T14:39:59.869Z,1.90
2018-01-21T14:42:25.933Z,1.91
2018-01-21T14:44:51.953Z,1.85
2018-01-21T14:47:18.015Z,1.54
2018-01-21T14:49:44.028Z,1.51
2018-01-21T14:52:10.063Z,1.68
2018-01-21T14:54:36.230Z,1.91
2018-01-21T14:57:02.321Z,1.69
2018-01-21T14:59:28.424Z,1.87
2018-01-21T15:01:54.475Z,1.85
2018-01-21T15:04:20.505Z,1.87
2018-01-21T15:06:46.510Z,1.87
2018-01-21T15:09:12.491Z,1.87
2018-01-21T15:11:38.486Z,1.92
2018-01-21T15:14:04.572Z,2.01
2018-01-21T15:16:30.590Z,2.05
2018-01-21T15:18:56.648Z,1.90
2018-01-21T15:21:22.764Z,1.74
2018-01-21T15:23:50.661Z,1.66
2018-01-21T15:26:16.745Z,1.56
2018-01-21T15:28:42.808Z,1.51
2018-01-21T15:31:08.871Z,1.64
2018-01-21T15:33:34.928Z,1.67
2018-01-21T15:36:01.163Z,1.87
2018-01-21T15:38:27.892Z,1.92
2018-01-21T15:40:53.921Z,1.80
2018-01-21T15:43:19.992Z,1.75
2018-01-21T15:45:46.068Z,1.74
2018-01-21T15:48:12.145Z,1.63
2018-01-21T15:50:38.190Z,1.57
2018-01-21T15:53:04.249Z,1.57
2018-01-21T15:55:30.302Z,1.43
2018-01-21T15:57:56.460Z,1.48
2018-01-21T16:00:22.553Z,1.44
2018-01-21T16:02:48.585Z,1.55
2018-01-21T16:05:14.683Z,1.46
2018-01-21T16:07:40.709Z,1.41
2018-01-21T16:10:06.759Z,1.33
2018-01-21T16:12:32.814Z,1.26
2018-01-21T16:14:58.851Z,1.19
2018-01-21T16:17:25.054Z,1.19
2018-01-21T16:19:51.050Z,1.16
2018-01-21T16:22:17.117Z,1.08
2018-01-21T16:24:43.186Z,0.93
2018-01-21T16:27:09.260Z,0.91
2018-01-21T16:29:35.324Z,0.95
2018-01-21T16:32:01.337Z,0.80
2018-01-21T16:34:27.436Z,0.68
2018-01-21T16:36:53.918Z,0.89
2018-01-21T16:39:19.974Z,0.83
2018-01-21T16:41:46.084Z,0.68
2018-01-21T16:44:12.197Z,0.59
2018-01-21T16:46:38.386Z,0.54
2018-01-21T16:49:04.457Z,0.42
2018-01-21T16:51:30.481Z,0.44
2018-01-21T16:53:56.610Z,0.38
2018-01-21T16:56:22.720Z,0.39
2018-01-21T16:58:48.805Z,0.34
2018-01-21T17:01:15.178Z,0.39
2018-01-21T17:03:41.259Z,0.43
2018-01-21T17:06:07.385Z,0.47
2018-01-21T17:08:33.484Z,0.49
2018-01-21T17:10:59.518Z,0.51
2018-01-21T17:13:25.648Z,0.52
2018-01-21T17:15:51.756Z,0.51
2018-01-21T17:18:17.786Z,0.44
2018-01-21T17:20:44.137Z,0.40
2018-01-21T17:23:10.115Z,0.42
2018-01-21T17:25:36.137Z,0.29
2018-01-21T17:28:02.180Z,0.41
2018-01-21T17:30:28.210Z,0.32
2018-01-21T17:32:54.279Z,0.50
2018-01-21T17:35:20.299Z,0.34
2018-01-21T17:37:46.400Z,0.32
2018-01-21T17:40:12.560Z,0.36
2018-01-21T17:42:38.609Z,0.38
2018-01-21T17:45:04.779Z,0.29
2018-01-21T17:47:30.784Z,0.43
2018-01-21T17:49:56.902Z,0.44
2018-01-21T17:52:22.938Z,0.50
2018-01-21T17:54:49.013Z,0.65
2018-01-21T17:57:15.152Z,0.78
2018-01-21T17:59:41.181Z,0.68
2018-01-21T18:02:07.313Z,0.60
2018-01-21T18:04:33.419Z,0.64
2018-01-21T18:06:59.534Z,0.61
2018-01-21T18:09:25.693Z,0.71
2018-01-21T18:11:51.717Z,0.72
2018-01-21T18:14:17.819Z,0.63
2018-01-21T18:16:43.837Z,0.54
2018-01-21T18:19:09.898Z,0.56
2018-01-21T18:21:35.979Z,0.50
2018-01-21T18:24:02.045Z,0.51
2018-01-21T18:26:28.068Z,0.51
2018-01-21T18:28:54.232Z,0.45
2018-01-21T18:31:20.285Z,0.31
2018-01-21T18:33:46.333Z,0.29
2018-01-21T18:36:12.389Z,0.24
2018-01-21T18:38:38.391Z,0.16
2018-01-21T18:41:04.521Z,0.03
2018-01-21T18:43:30.482Z,-0.12
2018-01-21T18:45:56.999Z,-0.26
2018-01-21T18:48:23.191Z,-0.27
2018-01-21T18:50:49.230Z,-0.24
2018-01-21T18:53:15.277Z,-0.29
2018-01-21T18:55:41.315Z,-0.33
2018-01-21T18:58:07.349Z,-0.22
2018-01-21T19:00:33.472Z,-0.28
2018-01-21T19:02:59.502Z,-0.27
2018-01-21T19:05:25.526Z,-0.34
2018-01-21T19:07:51.645Z,-0.33
2018-01-21T19:10:17.719Z,-0.31
2018-01-21T19:12:43.780Z,-0.26
2018-01-21T19:15:09.846Z,-0.28
2018-01-21T19:17:35.953Z,-0.26
2018-01-21T19:20:02.081Z,-0.21
2018-01-21T19:22:28.111Z,-0.24
2018-01-21T19:24:54.211Z,-0.01
2018-01-21T19:27:20.255Z,-0.03
2018-01-21T19:29:46.313Z,-0.04
2018-01-21T19:32:12.473Z,0.10
2018-01-21T19:34:38.488Z,0.05
2018-01-21T19:37:04.859Z,0.10
2018-01-21T19:39:32.020Z,0.19
2018-01-21T19:42:00.196Z,0.09
2018-01-21T19:44:26.258Z,0.10
2018-01-21T19:46:52.414Z,0.08
2018-01-21T19:49:19.048Z,0.04
2018-01-21T19:51:45.160Z,-0.07
2018-01-21T19:54:11.236Z,-0.06
2018-01-21T19:56:37.435Z,-0.15
2018-01-21T19:59:04.400Z,-0.21
2018-01-21T20:01:30.460Z,-0.30
2018-01-21T20:03:56.552Z,-0.31
2018-01-21T20:06:23.165Z,-0.47
2018-01-21T20:08:49.225Z,-0.50
2018-01-21T20:11:15.280Z,-0.56
2018-01-21T20:13:41.391Z,-0.45
2018-01-21T20:16:07.505Z,-0.35
2018-01-21T20:18:33.582Z,-0.47
2018-01-21T20:20:59.601Z,-0.53
2018-01-21T20:23:25.637Z,-0.43
2018-01-21T20:25:51.725Z,-0.49
2018-01-21T20:28:17.768Z,-0.55
2018-01-21T20:30:43.912Z,-0.63
2018-01-21T20:33:09.916Z,-0.61
2018-01-21T20:35:36.005Z,-0.67
2018-01-21T20:38:02.010Z,-0.63
2018-01-21T20:40:28.014Z,-0.53
2018-01-21T20:42:54.093Z,-0.57
2018-01-21T20:45:20.124Z,-0.63
2018-01-21T20:47:46.145Z,-0.68
2018-01-21T20:50:12.533Z,-0.72
2018-01-21T20:52:44.668Z,-0.76
2018-01-21T20:55:10.699Z,-0.79
2018-01-21T20:57:36.733Z,-0.74
2018-01-21T21:00:02.853Z,-0.62
2018-01-21T21:02:28.885Z,-0.58
2018-01-21T21:04:54.882Z,-0.63
2018-01-21T21:07:20.905Z,-0.68
2018-01-21T21:09:46.916Z,-0.73
2018-01-21T21:12:12.958Z,-0.68
2018-01-21T21:14:39.004Z,-0.77
2018-01-21T21:17:05.025Z,-0.78
2018-01-21T21:19:31.022Z,-0.66
2018-01-21T21:21:57.027Z,-0.68
2018-01-21T21:24:23.063Z,-0.70
2018-01-21T21:26:49.080Z,-0.71
2018-01-21T21:29:15.196Z,-0.82
2018-01-21T21:31:41.288Z,-0.85
2018-01-21T21:34:07.260Z,-0.85
2018-01-21T21:36:33.305Z,-0.79
2018-01-21T21:38:59.409Z,-0.74
2018-01-21T21:41:25.414Z,-0.80
2018-01-21T21:43:51.424Z,-0.83
2018-01-21T21:46:17.425Z,-0.75
2018-01-21T21:48:43.528Z,-0.68
2018-01-21T21:51:09.566Z,-0.71
2018-01-21T21:53:35.594Z,-0.72
2018-01-21T21:56:01.628Z,-0.74
2018-01-21T21:58:27.648Z,-0.76
2018-01-21T22:00:53.736Z,-0.71
2018-01-21T22:03:19.815Z,-0.65
2018-01-21T22:05:45.856Z,-0.58
2018-01-21T22:08:11.869Z,-0.57
2018-01-21T22:10:37.884Z,-0.57
2018-01-21T22:13:03.901Z,-0.59
2018-01-21T22:15:29.924Z,-0.48
2018-01-21T22:17:56.002Z,-0.54
2018-01-21T22:20:22.082Z,-0.45
2018-01-21T22:22:48.285Z,-0.38
2018-01-21T22:25:14.356Z,-0.53
2018-01-21T22:27:40.385Z,-0.47
2018-01-21T22:30:06.429Z,-0.27
2018-01-21T22:32:32.448Z,-0.47
2018-01-21T22:34:58.511Z,-0.38
2018-01-21T22:37:24.537Z,-0.42
2018-01-21T22:39:50.574Z,-0.35
2018-01-21T22:42:16.637Z,-0.29
2018-01-21T22:44:42.668Z,-0.33
2018-01-21T22:47:08.697Z,-0.30
2018-01-21T22:49:34.746Z,-0.32
2018-01-21T22:52:00.750Z,-0.29
2018-01-21T22:54:26.869Z,-0.32
2018-01-21T22:56:52.895Z,-0.56
2018-01-21T22:59:18.913Z,-0.67
2018-01-21T23:01:44.986Z,-0.65
2018-01-21T23:04:10.991Z,-0.50
2018-01-21T23:06:37.025Z,-0.46
2018-01-21T23:09:03.012Z,-0.50
2018-01-21T23:11:29.026Z,-0.37
2018-01-21T23:13:54.993Z,-0.32
2018-01-21T23:16:21.016Z,-0.26
2018-01-21T23:18:47.073Z,-0.25
2018-01-21T23:21:13.096Z,-0.33
2018-01-21T23:23:39.176Z,-0.34
2018-01-21T23:26:05.196Z,-0.36
2018-01-21T23:28:31.196Z,-0.41
2018-01-21T23:30:57.233Z,-0.47
2018-01-21T23:33:23.288Z,-0.40
2018-01-21T23:35:49.303Z,-0.25
2018-01-21T23:38:15.339Z,-0.23
2018-01-21T23:40:41.353Z,-0.21
2018-01-21T23:43:07.387Z,-0.18
2018-01-21T23:45:33.848Z,-0.27
2018-01-21T23:47:59.877Z,-0.24
2018-01-21T23:50:25.925Z,-0.29
2018-01-21T23:52:51.957Z,-0.24
2018-01-21T23:55:17.999Z,-0.34
2018-01-21T23:57:44.138Z,-0.39
